createdAt,value
2019-04-28T00:01:01.037Z,100.00
2019-04-28T00:03:31.941Z,100.00
2019-04-28T00:06:01.566Z,100.00
2019-04-28T00:08:31.879Z,100.00
2019-04-28T00:11:01.925Z,100.00
2019-04-28T00:13:32.089Z,100.00
2019-04-28T00:16:01.835Z,100.00
2019-04-28T00:18:31.785Z,100.00
2019-04-28T00:21:11.031Z,100.00
2019-04-28T00:24:05.167Z,100.00
2019-04-28T00:26:42.131Z,100.00
2019-04-28T00:29:11.771Z,100.00
2019-04-28T00:31:41.560Z,100.00
2019-04-28T00:34:11.547Z,100.00
2019-04-28T00:36:43.064Z,100.00
2019-04-28T00:39:12.946Z,100.00
2019-04-28T00:41:42.541Z,100.00
2019-04-28T00:44:12.418Z,100.00
2019-04-28T00:46:43.126Z,100.00
2019-04-28T00:49:12.673Z,100.00
2019-04-28T00:51:42.216Z,100.00
2019-04-28T00:54:12.272Z,100.00
2019-04-28T00:56:42.113Z,100.00
2019-04-28T00:59:12.051Z,100.00
2019-04-28T01:01:53.529Z,100.00
2019-04-28T01:04:23.041Z,100.00
2019-04-28T01:09:31.708Z,100.00
2019-04-28T01:12:01.799Z,100.00
2019-04-28T01:14:31.529Z,100.00
2019-04-28T01:17:12.360Z,100.00
2019-04-28T01:19:44.000Z,100.00
2019-04-28T01:22:15.839Z,100.00
2019-04-28T01:24:45.408Z,100.00
2019-04-28T01:27:36.628Z,100.00
2019-04-28T01:30:11.364Z,100.00
2019-04-28T01:32:49.797Z,100.00
2019-04-28T01:35:20.990Z,100.00
2019-04-28T01:37:50.715Z,100.00
2019-04-28T01:40:20.623Z,100.00
2019-04-28T01:42:50.247Z,100.00
2019-04-28T01:45:20.585Z,100.00
2019-04-28T01:47:50.527Z,100.00
2019-04-28T01:50:20.594Z,100.00
2019-04-28T01:52:51.528Z,100.00
2019-04-28T01:55:21.292Z,100.00
2019-04-28T01:57:50.904Z,100.00
2019-04-28T02:00:25.292Z,100.00
2019-04-28T02:02:51.759Z,100.00
2019-04-28T02:05:21.324Z,100.00
2019-04-28T02:07:50.791Z,100.00
2019-04-28T02:10:21.873Z,100.00
2019-04-28T02:12:51.384Z,100.00
2019-04-28T02:15:20.978Z,100.00
2019-04-28T02:17:51.643Z,96.99
2019-04-28T02:20:22.464Z,96.70
2019-04-28T02:23:05.768Z,96.38
2019-04-28T02:25:35.343Z,97.33
2019-04-28T02:28:04.916Z,96.23
2019-04-28T02:30:46.705Z,94.91
2019-04-28T02:33:05.744Z,95.09
2019-04-28T02:35:35.282Z,96.38
2019-04-28T02:38:04.910Z,95.90
2019-04-28T02:40:34.384Z,97.79
2019-04-28T02:43:03.863Z,99.24
2019-04-28T02:45:33.538Z,100.00
2019-04-28T02:48:04.842Z,100.00
2019-04-28T02:50:53.154Z,100.00
2019-04-28T02:53:33.176Z,99.99
2019-04-28T02:56:00.894Z,99.91
2019-04-28T02:58:31.354Z,98.06
2019-04-28T03:01:12.565Z,97.21
2019-04-28T03:03:32.340Z,97.52
2019-04-28T03:06:01.921Z,98.07
2019-04-28T03:08:31.598Z,98.71
2019-04-28T03:11:01.292Z,98.98
2019-04-28T03:13:31.375Z,99.52
2019-04-28T03:16:01.849Z,100.00
2019-04-28T03:18:31.893Z,100.00
2019-04-28T03:21:04.509Z,100.00
2019-04-28T03:23:33.141Z,100.00
2019-04-28T03:26:31.088Z,100.00
2019-04-28T03:29:07.071Z,100.00
2019-04-28T03:32:15.595Z,100.00
2019-04-28T03:34:23.359Z,100.00
2019-04-28T03:36:53.016Z,100.00
2019-04-28T03:39:22.433Z,100.00
2019-04-28T03:41:52.001Z,100.00
2019-04-28T03:44:21.594Z,100.00
2019-04-28T03:46:53.784Z,100.00
2019-04-28T03:49:33.397Z,100.00
2019-04-28T03:52:03.690Z,100.00
2019-04-28T03:54:33.256Z,100.00
2019-04-28T03:57:02.930Z,100.00
2019-04-28T03:59:32.543Z,100.00
2019-04-28T04:02:03.429Z,100.00
2019-04-28T04:04:33.265Z,100.00
2019-04-28T04:07:02.799Z,100.00
2019-04-28T04:09:52.604Z,100.00
2019-04-28T04:12:30.905Z,100.00
2019-04-28T04:15:12.169Z,100.00
2019-04-28T04:18:01.389Z,100.00
2019-04-28T04:20:31.247Z,100.00
2019-04-28T04:23:01.609Z,99.73
2019-04-28T04:25:31.624Z,98.83
2019-04-28T04:28:03.867Z,95.81
2019-04-28T04:30:32.466Z,82.58
2019-04-28T04:33:01.986Z,68.63
2019-04-28T04:35:31.775Z,63.10
2019-04-28T04:38:01.405Z,62.77
2019-04-28T04:40:31.608Z,61.71
2019-04-28T04:43:01.958Z,61.14
2019-04-28T04:45:31.615Z,56.99
2019-04-28T04:48:01.153Z,51.74
2019-04-28T04:50:31.535Z,46.89
2019-04-28T04:53:02.614Z,42.41
2019-04-28T04:55:33.068Z,37.92
2019-04-28T04:58:02.632Z,36.54
2019-04-28T05:00:43.453Z,36.96
2019-04-28T05:03:21.022Z,35.00
2019-04-28T05:05:50.198Z,33.02
2019-04-28T05:08:20.362Z,36.26
2019-04-28T05:10:50.354Z,38.84
2019-04-28T05:13:20.231Z,42.54
2019-04-28T05:15:50.699Z,46.09
2019-04-28T05:18:21.035Z,44.76
2019-04-28T05:20:50.604Z,43.12
2019-04-28T05:23:31.231Z,39.21
2019-04-28T05:26:07.664Z,37.29
2019-04-28T05:28:36.515Z,35.54
2019-04-28T05:31:03.328Z,33.65
2019-04-28T05:33:34.049Z,36.24
2019-04-28T05:36:03.736Z,41.53
2019-04-28T05:38:33.303Z,44.03
2019-04-28T05:41:02.976Z,44.91
2019-04-28T05:43:32.539Z,42.27
2019-04-28T05:46:02.070Z,38.89
2019-04-28T05:48:56.331Z,35.14
2019-04-28T05:51:29.861Z,32.93
2019-04-28T05:54:20.749Z,30.30
2019-04-28T05:57:10.361Z,32.67
2019-04-28T05:59:55.348Z,35.18
2019-04-28T06:02:30.679Z,36.46
2019-04-28T06:05:00.350Z,35.60
2019-04-28T06:07:42.229Z,33.67
2019-04-28T06:10:12.467Z,30.78
2019-04-28T06:12:42.280Z,32.76
2019-04-28T06:15:12.119Z,34.91
2019-04-28T06:17:41.686Z,34.23
2019-04-28T06:20:11.848Z,33.13
2019-04-28T06:22:41.463Z,32.15
2019-04-28T06:25:11.158Z,31.91
2019-04-28T06:27:40.759Z,33.79
2019-04-28T06:30:10.377Z,34.99
2019-04-28T06:32:39.796Z,34.06
2019-04-28T06:35:09.319Z,32.60
2019-04-28T06:37:38.752Z,33.87
2019-04-28T06:40:08.556Z,32.65
2019-04-28T06:42:38.175Z,31.04
2019-04-28T06:45:07.747Z,31.37
2019-04-28T06:47:37.202Z,30.88
2019-04-28T06:50:06.650Z,33.11
2019-04-28T06:52:36.072Z,36.15
2019-04-28T06:55:06.047Z,36.39
2019-04-28T06:57:35.469Z,38.07
2019-04-28T07:00:05.614Z,39.92
2019-04-28T07:02:35.042Z,41.65
2019-04-28T07:05:04.888Z,42.52
2019-04-28T07:07:34.388Z,44.11
2019-04-28T07:10:03.787Z,43.70
2019-04-28T07:12:33.239Z,44.49
2019-04-28T07:15:02.736Z,44.88
2019-04-28T07:17:32.183Z,46.15
2019-04-28T07:20:10.706Z,46.20
2019-04-28T07:22:40.156Z,44.77
2019-04-28T07:25:09.592Z,44.57
2019-04-28T07:27:39.042Z,45.21
2019-04-28T07:30:08.554Z,44.85
2019-04-28T07:32:38.148Z,43.84
2019-04-28T07:35:07.641Z,47.44
2019-04-28T07:37:37.120Z,46.18
2019-04-28T07:40:06.671Z,44.96
2019-04-28T07:42:36.119Z,44.82
2019-04-28T07:45:05.692Z,48.24
2019-04-28T07:47:35.174Z,46.27
2019-04-28T07:50:04.708Z,46.31
2019-04-28T07:52:40.296Z,45.32
2019-04-28T07:55:09.740Z,45.62
2019-04-28T07:57:39.171Z,47.44
2019-04-28T08:00:09.764Z,45.62
2019-04-28T08:02:39.194Z,44.30
2019-04-28T08:05:08.665Z,44.11
2019-04-28T08:07:38.079Z,44.34
2019-04-28T08:10:07.534Z,43.86
2019-04-28T08:12:36.959Z,42.46
2019-04-28T08:15:06.430Z,42.50
2019-04-28T08:17:35.967Z,43.55
2019-04-28T08:20:05.873Z,41.96
2019-04-28T08:22:35.315Z,41.87
2019-04-28T08:25:04.919Z,41.74
2019-04-28T08:27:34.334Z,43.31
2019-04-28T08:30:03.838Z,42.83
2019-04-28T08:32:45.177Z,43.63
2019-04-28T08:35:14.591Z,42.80
2019-04-28T08:37:44.099Z,44.21
2019-04-28T08:40:13.514Z,44.26
2019-04-28T08:42:43.097Z,43.13
2019-04-28T08:45:12.534Z,43.16
2019-04-28T08:47:41.927Z,43.79
2019-04-28T08:50:11.353Z,44.56
2019-04-28T08:52:40.779Z,44.58
2019-04-28T08:55:10.291Z,43.11
2019-04-28T08:57:39.737Z,40.19
2019-04-28T09:00:10.540Z,42.13
2019-04-28T09:02:39.986Z,42.18
2019-04-28T09:05:09.427Z,42.73
2019-04-28T09:07:38.841Z,42.92
2019-04-28T09:10:08.312Z,40.28
2019-04-28T09:12:37.731Z,41.50
2019-04-28T09:15:07.491Z,40.19
2019-04-28T09:17:36.904Z,40.23
2019-04-28T09:20:06.623Z,42.00
2019-04-28T09:22:36.030Z,42.03
2019-04-28T09:25:05.653Z,39.64
2019-04-28T09:27:35.171Z,38.71
2019-04-28T09:30:04.843Z,39.56
2019-04-28T09:32:34.300Z,38.99
2019-04-28T09:35:03.757Z,39.24
2019-04-28T09:37:33.182Z,39.47
2019-04-28T09:40:14.303Z,40.13
2019-04-28T09:43:08.767Z,42.47
2019-04-28T09:45:47.850Z,41.25
2019-04-28T09:48:17.317Z,42.72
2019-04-28T09:50:46.744Z,39.84
2019-04-28T09:53:16.179Z,39.20
2019-04-28T09:55:45.623Z,39.71
2019-04-28T09:58:15.119Z,39.50
2019-04-28T10:00:44.534Z,40.51
2019-04-28T10:03:14.024Z,37.83
2019-04-28T10:05:43.509Z,38.75
2019-04-28T10:08:12.973Z,38.44
2019-04-28T10:10:42.411Z,39.48
2019-04-28T10:13:11.831Z,39.30
2019-04-28T10:15:41.290Z,39.31
2019-04-28T10:18:10.709Z,39.05
2019-04-28T10:20:40.163Z,39.47
2019-04-28T10:23:09.599Z,40.50
2019-04-28T10:25:39.037Z,38.21
2019-04-28T10:28:08.555Z,36.77
2019-04-28T10:30:37.996Z,38.23
2019-04-28T10:33:07.446Z,37.81
2019-04-28T10:35:36.974Z,38.63
2019-04-28T10:38:06.523Z,38.05
2019-04-28T10:41:08.205Z,36.78
2019-04-28T10:43:37.656Z,37.09
2019-04-28T10:46:07.099Z,38.38
2019-04-28T10:48:36.716Z,38.62
2019-04-28T10:51:06.163Z,38.23
2019-04-28T10:53:35.625Z,37.83
2019-04-28T10:56:05.136Z,36.61
2019-04-28T10:58:34.568Z,35.51
2019-04-28T11:01:04.017Z,33.49
2019-04-28T11:03:33.469Z,30.35
2019-04-28T11:06:02.966Z,29.19
2019-04-28T11:08:50.221Z,28.77
2019-04-28T11:11:27.543Z,27.30
2019-04-28T11:13:57.161Z,27.53
2019-04-28T11:16:33.194Z,28.61
2019-04-28T11:19:02.767Z,28.33
2019-04-28T11:21:32.301Z,28.89
2019-04-28T11:24:01.840Z,31.49
2019-04-28T11:26:31.382Z,31.03
2019-04-28T11:29:01.043Z,29.69
2019-04-28T11:31:30.494Z,29.50
2019-04-28T11:34:25.050Z,31.06
2019-04-28T11:36:54.532Z,32.38
2019-04-28T11:39:31.096Z,32.77
2019-04-28T11:42:00.584Z,34.25
2019-04-28T11:44:30.024Z,30.41
2019-04-28T11:46:59.438Z,29.76
2019-04-28T11:49:28.966Z,28.10
2019-04-28T11:51:58.498Z,30.40
2019-04-28T11:54:27.948Z,30.58
2019-04-28T11:56:57.388Z,30.10
2019-04-28T11:59:26.848Z,29.49
2019-04-28T12:01:56.550Z,28.87
2019-04-28T12:04:26.007Z,29.49
2019-04-28T12:06:55.432Z,27.86
2019-04-28T12:09:33.295Z,28.68
2019-04-28T12:12:03.580Z,27.81
2019-04-28T12:14:54.961Z,27.67
2019-04-28T12:17:46.072Z,28.06
2019-04-28T12:20:18.613Z,26.34
2019-04-28T12:22:48.013Z,26.37
2019-04-28T12:25:17.621Z,26.37
2019-04-28T12:27:47.118Z,26.52
2019-04-28T12:30:16.575Z,26.79
2019-04-28T12:32:46.004Z,27.09
2019-04-28T12:35:18.284Z,27.39
2019-04-28T12:37:46.571Z,27.17
2019-04-28T12:40:15.991Z,26.96
2019-04-28T12:42:45.525Z,26.71
2019-04-28T12:45:15.006Z,26.71
2019-04-28T12:47:44.530Z,26.46
2019-04-28T12:50:22.450Z,26.22
2019-04-28T12:52:52.167Z,26.17
2019-04-28T12:55:21.668Z,25.89
2019-04-28T12:57:51.469Z,25.89
2019-04-28T13:00:39.738Z,25.57
2019-04-28T13:03:26.416Z,25.57
2019-04-28T13:06:02.483Z,24.91
2019-04-28T13:08:27.486Z,24.62
2019-04-28T13:10:56.892Z,25.56
2019-04-28T13:13:26.334Z,26.04
2019-04-28T13:15:55.816Z,26.00
2019-04-28T13:18:25.265Z,26.46
2019-04-28T13:20:54.705Z,26.41
2019-04-28T13:23:24.265Z,25.92
2019-04-28T13:25:53.679Z,26.23
2019-04-28T13:28:23.112Z,27.75
2019-04-28T13:30:52.511Z,28.29
2019-04-28T13:33:22.083Z,30.79
2019-04-28T13:35:51.519Z,32.03
2019-04-28T13:38:21.001Z,34.19
2019-04-28T13:40:50.430Z,32.71
2019-04-28T13:43:20.008Z,32.38
2019-04-28T13:45:49.392Z,33.77
2019-04-28T13:48:18.909Z,34.80
2019-04-28T13:50:49.029Z,36.87
2019-04-28T13:53:18.791Z,38.03
2019-04-28T13:56:07.058Z,39.30
2019-04-28T13:58:39.055Z,39.42
2019-04-28T14:01:36.391Z,41.16
2019-04-28T14:04:24.700Z,41.21
2019-04-28T14:07:02.301Z,40.65
2019-04-28T14:09:31.833Z,41.81
2019-04-28T14:12:01.230Z,40.85
2019-04-28T14:14:30.686Z,40.18
2019-04-28T14:17:00.199Z,40.21
2019-04-28T14:19:29.622Z,39.56
2019-04-28T14:21:59.067Z,38.56
2019-04-28T14:24:28.499Z,40.28
2019-04-28T14:26:57.989Z,38.75
2019-04-28T14:29:27.420Z,39.69
2019-04-28T14:31:56.910Z,39.03
2019-04-28T14:34:26.345Z,39.53
2019-04-28T14:36:55.810Z,39.65
2019-04-28T14:39:25.282Z,40.05
2019-04-28T14:41:54.747Z,39.78
2019-04-28T14:44:24.249Z,39.25
2019-04-28T14:46:53.963Z,39.99
2019-04-28T14:49:23.542Z,39.41
2019-04-28T14:51:53.062Z,38.98
2019-04-28T14:54:22.476Z,39.18
2019-04-28T14:56:51.993Z,39.46
2019-04-28T14:59:21.417Z,40.03
2019-04-28T15:02:09.711Z,39.20
2019-04-28T15:05:13.284Z,39.24
2019-04-28T15:07:59.237Z,40.15
2019-04-28T15:10:40.785Z,41.04
2019-04-28T15:13:10.413Z,40.50
2019-04-28T15:15:39.967Z,40.56
2019-04-28T15:18:09.508Z,41.13
2019-04-28T15:20:39.064Z,41.66
2019-04-28T15:23:08.450Z,42.43
2019-04-28T15:25:37.871Z,41.94
2019-04-28T15:28:07.304Z,41.52
2019-04-28T15:30:36.735Z,40.75
2019-04-28T15:33:06.241Z,41.14
2019-04-28T15:35:35.801Z,42.33
2019-04-28T15:38:05.254Z,41.98
2019-04-28T15:40:34.726Z,42.62
2019-04-28T15:43:04.168Z,41.77
2019-04-28T15:45:33.600Z,41.79
2019-04-28T15:48:03.039Z,43.07
2019-04-28T15:50:32.578Z,42.96
2019-04-28T15:53:02.053Z,43.22
2019-04-28T15:55:49.472Z,42.99
2019-04-28T15:58:35.674Z,43.31
2019-04-28T16:01:05.333Z,43.61
2019-04-28T16:03:34.798Z,44.43
2019-04-28T16:06:04.298Z,44.97
2019-04-28T16:08:33.750Z,45.13
2019-04-28T16:11:03.170Z,46.10
2019-04-28T16:13:32.782Z,46.77
2019-04-28T16:16:02.267Z,46.94
2019-04-28T16:18:31.817Z,47.58
2019-04-28T16:21:01.249Z,47.69
2019-04-28T16:23:30.700Z,48.35
2019-04-28T16:26:00.176Z,49.45
2019-04-28T16:28:29.639Z,49.71
2019-04-28T16:30:59.128Z,49.26
2019-04-28T16:33:28.541Z,49.95
2019-04-28T16:35:58.233Z,50.44
2019-04-28T16:38:27.688Z,50.83
2019-04-28T16:41:09.084Z,51.51
2019-04-28T16:43:58.897Z,51.60
2019-04-28T16:46:28.351Z,51.79
2019-04-28T16:48:57.807Z,54.57
2019-04-28T16:51:27.405Z,55.75
2019-04-28T16:53:56.928Z,56.97
2019-04-28T16:56:48.306Z,58.96
2019-04-28T16:59:34.247Z,59.64
2019-04-28T17:02:11.049Z,61.12
2019-04-28T17:04:40.480Z,62.62
2019-04-28T17:07:09.982Z,63.41
2019-04-28T17:09:39.404Z,63.75
2019-04-28T17:12:08.947Z,65.29
2019-04-28T17:14:38.411Z,65.85
2019-04-28T17:17:09.636Z,67.12
2019-04-28T17:19:39.063Z,67.67
2019-04-28T17:22:08.556Z,67.75
2019-04-28T17:24:38.510Z,68.22
2019-04-28T17:27:07.967Z,67.89
2019-04-28T17:29:37.991Z,67.38
2019-04-28T17:32:07.635Z,67.47
2019-04-28T17:34:37.084Z,68.74
2019-04-28T17:37:07.392Z,69.24
2019-04-28T17:39:36.805Z,69.02
2019-04-28T17:42:07.891Z,69.17
2019-04-28T17:44:37.453Z,70.32
2019-04-28T17:47:06.912Z,70.52
2019-04-28T17:49:37.897Z,71.36
2019-04-28T17:52:07.719Z,72.38
2019-04-28T17:54:37.165Z,72.63
2019-04-28T17:57:06.942Z,71.86
2019-04-28T17:59:36.925Z,71.85
2019-04-28T18:02:28.117Z,72.09
2019-04-28T18:05:16.400Z,72.05
2019-04-28T18:07:47.587Z,72.30
2019-04-28T18:10:17.310Z,71.87
2019-04-28T18:12:59.522Z,72.05
2019-04-28T18:15:40.049Z,71.99
2019-04-28T18:18:27.116Z,71.85
2019-04-28T18:20:56.562Z,72.34
2019-04-28T18:23:26.065Z,73.04
2019-04-28T18:25:55.677Z,73.26
2019-04-28T18:28:25.279Z,74.98
2019-04-28T18:31:12.394Z,73.88
2019-04-28T18:33:59.153Z,73.35
2019-04-28T18:36:36.363Z,72.75
2019-04-28T18:39:19.396Z,72.86
2019-04-28T18:42:14.803Z,72.02
2019-04-28T18:44:44.319Z,71.92
2019-04-28T18:47:13.745Z,71.64
2019-04-28T18:49:43.281Z,71.43
2019-04-28T18:52:12.858Z,71.11
2019-04-28T18:54:42.302Z,71.57
2019-04-28T18:57:11.720Z,72.07
2019-04-28T18:59:41.165Z,72.78
2019-04-28T19:02:32.337Z,71.95
2019-04-28T19:05:01.924Z,71.84
2019-04-28T19:07:48.811Z,71.71
2019-04-28T19:10:40.460Z,71.89
2019-04-28T19:13:20.148Z,71.52
2019-04-28T19:16:26.383Z,71.26
2019-04-28T19:18:57.964Z,71.28
2019-04-28T19:21:27.450Z,71.72
2019-04-28T19:23:56.870Z,71.25
2019-04-28T19:26:26.312Z,71.58
2019-04-28T19:28:55.736Z,70.89
2019-04-28T19:31:25.164Z,71.56
2019-04-28T19:33:54.613Z,72.07
2019-04-28T19:36:24.067Z,73.02
2019-04-28T19:39:02.879Z,73.08
2019-04-28T19:41:27.155Z,73.92
2019-04-28T19:44:01.557Z,74.97
2019-04-28T19:46:31.085Z,75.67
2019-04-28T19:49:00.497Z,75.83
2019-04-28T19:51:32.154Z,76.37
2019-04-28T19:54:01.413Z,76.54
2019-04-28T19:56:44.898Z,77.12
2019-04-28T19:59:18.855Z,77.49
2019-04-28T20:01:48.339Z,78.06
2019-04-28T20:04:17.807Z,78.66
2019-04-28T20:06:47.167Z,79.00
2019-04-28T20:09:16.589Z,79.00
2019-04-28T20:11:46.035Z,79.32
2019-04-28T20:14:15.457Z,79.80
2019-04-28T20:16:44.875Z,80.68
2019-04-28T20:19:14.281Z,81.19
2019-04-28T20:21:43.718Z,81.48
2019-04-28T20:24:13.160Z,81.53
2019-04-28T20:26:42.568Z,81.92
2019-04-28T20:29:11.986Z,82.14
2019-04-28T20:31:41.453Z,82.81
2019-04-28T20:34:10.869Z,83.16
2019-04-28T20:37:08.541Z,83.87
2019-04-28T20:39:37.961Z,84.36
2019-04-28T20:42:25.301Z,85.16
2019-04-28T20:44:54.997Z,85.32
2019-04-28T20:47:24.409Z,85.96
2019-04-28T20:49:53.822Z,86.30
2019-04-28T20:52:23.235Z,86.54
2019-04-28T20:54:52.661Z,86.55
2019-04-28T20:57:22.082Z,86.58
2019-04-28T20:59:51.546Z,86.63
2019-04-28T21:02:20.972Z,86.22
2019-04-28T21:04:50.382Z,86.21
2019-04-28T21:07:19.801Z,86.01
2019-04-28T21:09:49.245Z,86.16
2019-04-28T21:12:18.724Z,86.11
2019-04-28T21:14:48.152Z,85.95
2019-04-28T21:17:17.563Z,85.91
2019-04-28T21:19:47.005Z,85.83
2019-04-28T21:22:16.437Z,85.79
2019-04-28T21:24:45.856Z,85.32
2019-04-28T21:27:15.276Z,85.10
2019-04-28T21:29:44.691Z,85.63
2019-04-28T21:32:14.105Z,85.75
2019-04-28T21:34:43.535Z,86.05
2019-04-28T21:37:12.957Z,86.70
2019-04-28T21:39:42.449Z,86.33
2019-04-28T21:42:15.286Z,85.59
2019-04-28T21:44:59.481Z,85.04
2019-04-28T21:47:31.316Z,84.37
2019-04-28T21:50:00.726Z,84.80
2019-04-28T21:52:30.123Z,85.23
2019-04-28T21:54:59.560Z,84.96
2019-04-28T21:57:29.090Z,84.55
2019-04-28T21:59:58.514Z,84.80
2019-04-28T22:02:28.000Z,85.20
2019-04-28T22:04:57.407Z,85.26
2019-04-28T22:07:26.853Z,85.37
2019-04-28T22:09:56.268Z,85.47
2019-04-28T22:12:25.697Z,85.65
2019-04-28T22:14:55.109Z,85.57
2019-04-28T22:17:24.541Z,85.80
2019-04-28T22:19:53.959Z,85.76
2019-04-28T22:22:23.412Z,85.59
2019-04-28T22:24:59.328Z,85.52
2019-04-28T22:27:32.380Z,84.57
2019-04-28T22:30:01.818Z,84.21
2019-04-28T22:32:31.317Z,83.92
2019-04-28T22:35:00.722Z,83.52
2019-04-28T22:37:30.144Z,83.47
2019-04-28T22:39:59.574Z,83.32
2019-04-28T22:42:28.996Z,83.29
2019-04-28T22:44:58.470Z,83.97
2019-04-28T22:47:27.980Z,84.07
2019-04-28T22:49:57.394Z,84.64
2019-04-28T22:52:26.832Z,85.24
2019-04-28T22:55:15.113Z,85.62
2019-04-28T22:58:09.262Z,85.74
2019-04-28T23:00:54.845Z,85.17
2019-04-28T23:03:54.987Z,88.41
2019-04-28T23:06:24.426Z,89.82
2019-04-28T23:08:53.853Z,91.03
2019-04-28T23:11:23.263Z,91.94
2019-04-28T23:13:52.663Z,91.86
2019-04-28T23:16:22.172Z,92.27
2019-04-28T23:18:51.980Z,92.89
2019-04-28T23:21:36.189Z,93.36
2019-04-28T23:24:05.590Z,94.38
2019-04-28T23:26:35.002Z,94.80
2019-04-28T23:29:04.429Z,94.69
2019-04-28T23:31:33.856Z,94.91
2019-04-28T23:34:03.261Z,93.98
2019-04-28T23:36:32.684Z,93.39
2019-04-28T23:39:02.099Z,93.25
2019-04-28T23:41:39.957Z,93.18
2019-04-28T23:44:09.383Z,93.91
2019-04-28T23:46:58.576Z,94.12
2019-04-28T23:49:28.213Z,94.65
2019-04-28T23:52:16.542Z,95.58
2019-04-28T23:54:48.172Z,97.17
2019-04-28T23:57:17.599Z,97.17
2019-04-28T23:59:47.037Z,98.17
